sensor_id;sensor_type;location;lat;lon;timestamp;P1;durP1;ratioP1;P2;durP2;ratioP2
17059;SDS011;8646;49.716;9.266;2023-02-28T00:00:46;5.97;;;3.43;;
17059;SDS011;8646;49.716;9.266;2023-02-28T00:03:52;5.83;;;3.10;;
17059;SDS011;8646;49.716;9.266;2023-02-28T00:06:55;4.43;;;2.40;;
17059;SDS011;8646;49.716;9.266;2023-02-28T00:10:09;5.93;;;2.57;;
17059;SDS011;8646;49.716;9.266;2023-02-28T00:13:13;5.87;;;3.00;;
17059;SDS011;8646;49.716;9.266;2023-02-28T00:16:20;4.23;;;2.47;;
17059;SDS011;8646;49.716;9.266;2023-02-28T00:19:30;5.03;;;2.73;;
17059;SDS011;8646;49.716;9.266;2023-02-28T00:22:33;6.67;;;3.23;;
17059;SDS011;8646;49.716;9.266;2023-02-28T00:25:37;9.43;;;4.03;;
17059;SDS011;8646;49.716;9.266;2023-02-28T00:28:39;6.03;;;2.53;;
17059;SDS011;8646;49.716;9.266;2023-02-28T00:31:43;7.00;;;3.20;;
17059;SDS011;8646;49.716;9.266;2023-02-28T00:34:46;7.07;;;2.80;;
17059;SDS011;8646;49.716;9.266;2023-02-28T00:37:51;7.07;;;3.57;;
17059;SDS011;8646;49.716;9.266;2023-02-28T00:40:54;6.67;;;3.10;;
17059;SDS011;8646;49.716;9.266;2023-02-28T00:44:00;9.30;;;3.13;;
17059;SDS011;8646;49.716;9.266;2023-02-28T00:47:05;8.37;;;3.50;;
17059;SDS011;8646;49.716;9.266;2023-02-28T00:50:09;6.90;;;3.00;;
17059;SDS011;8646;49.716;9.266;2023-02-28T00:53:13;7.07;;;2.90;;
17059;SDS011;8646;49.716;9.266;2023-02-28T00:56:16;6.97;;;2.73;;
17059;SDS011;8646;49.716;9.266;2023-02-28T00:59:32;10.17;;;5.27;;
17059;SDS011;8646;49.716;9.266;2023-02-28T01:02:36;7.20;;;3.60;;
17059;SDS011;8646;49.716;9.266;2023-02-28T01:05:40;8.17;;;3.33;;
17059;SDS011;8646;49.716;9.266;2023-02-28T01:08:43;4.37;;;2.27;;
17059;SDS011;8646;49.716;9.266;2023-02-28T01:11:46;7.57;;;2.90;;
17059;SDS011;8646;49.716;9.266;2023-02-28T01:14:56;5.27;;;2.53;;
17059;SDS011;8646;49.716;9.266;2023-02-28T01:18:00;4.80;;;2.47;;
17059;SDS011;8646;49.716;9.266;2023-02-28T01:21:03;7.40;;;3.40;;
17059;SDS011;8646;49.716;9.266;2023-02-28T01:24:07;6.57;;;3.13;;
17059;SDS011;8646;49.716;9.266;2023-02-28T01:27:13;5.13;;;2.87;;
17059;SDS011;8646;49.716;9.266;2023-02-28T01:30:23;7.03;;;3.50;;
17059;SDS011;8646;49.716;9.266;2023-02-28T01:33:29;5.50;;;2.97;;
17059;SDS011;8646;49.716;9.266;2023-02-28T01:40:01;6.17;;;2.73;;
17059;SDS011;8646;49.716;9.266;2023-02-28T01:43:12;7.53;;;3.60;;
17059;SDS011;8646;49.716;9.266;2023-02-28T01:46:24;7.60;;;3.00;;
17059;SDS011;8646;49.716;9.266;2023-02-28T01:49:31;8.10;;;3.20;;
17059;SDS011;8646;49.716;9.266;2023-02-28T01:52:34;7.43;;;3.10;;
17059;SDS011;8646;49.716;9.266;2023-02-28T01:55:37;6.30;;;3.40;;
17059;SDS011;8646;49.716;9.266;2023-02-28T01:58:41;8.33;;;3.93;;
17059;SDS011;8646;49.716;9.266;2023-02-28T02:01:51;5.70;;;3.50;;
17059;SDS011;8646;49.716;9.266;2023-02-28T02:04:56;6.97;;;3.70;;
17059;SDS011;8646;49.716;9.266;2023-02-28T02:08:07;8.27;;;3.70;;
17059;SDS011;8646;49.716;9.266;2023-02-28T02:11:12;9.83;;;4.33;;
17059;SDS011;8646;49.716;9.266;2023-02-28T02:14:30;8.03;;;4.00;;
17059;SDS011;8646;49.716;9.266;2023-02-28T02:17:40;7.83;;;3.60;;
17059;SDS011;8646;49.716;9.266;2023-02-28T02:24:52;6.43;;;3.43;;
17059;SDS011;8646;49.716;9.266;2023-02-28T02:28:13;8.13;;;4.30;;
17059;SDS011;8646;49.716;9.266;2023-02-28T02:31:36;11.93;;;4.73;;
17059;SDS011;8646;49.716;9.266;2023-02-28T02:34:59;8.87;;;4.30;;
17059;SDS011;8646;49.716;9.266;2023-02-28T02:38:14;8.50;;;4.60;;
17059;SDS011;8646;49.716;9.266;2023-02-28T02:41:23;8.97;;;4.87;;
17059;SDS011;8646;49.716;9.266;2023-02-28T02:44:31;9.90;;;4.93;;
17059;SDS011;8646;49.716;9.266;2023-02-28T02:47:42;10.70;;;5.23;;
17059;SDS011;8646;49.716;9.266;2023-02-28T02:50:48;8.93;;;4.77;;
17059;SDS011;8646;49.716;9.266;2023-02-28T02:53:54;8.10;;;4.80;;
17059;SDS011;8646;49.716;9.266;2023-02-28T02:57:01;10.30;;;4.80;;
17059;SDS011;8646;49.716;9.266;2023-02-28T03:00:08;6.93;;;4.27;;
17059;SDS011;8646;49.716;9.266;2023-02-28T03:03:14;10.37;;;4.20;;
17059;SDS011;8646;49.716;9.266;2023-02-28T03:06:23;9.07;;;4.87;;
17059;SDS011;8646;49.716;9.266;2023-02-28T03:09:26;8.00;;;4.70;;
17059;SDS011;8646;49.716;9.266;2023-02-28T03:12:32;9.93;;;4.73;;
17059;SDS011;8646;49.716;9.266;2023-02-28T03:15:57;8.23;;;4.90;;
17059;SDS011;8646;49.716;9.266;2023-02-28T03:19:17;8.43;;;4.87;;
17059;SDS011;8646;49.716;9.266;2023-02-28T03:22:51;11.40;;;5.57;;
17059;SDS011;8646;49.716;9.266;2023-02-28T03:26:03;8.60;;;4.50;;
17059;SDS011;8646;49.716;9.266;2023-02-28T03:29:12;12.97;;;5.10;;
17059;SDS011;8646;49.716;9.266;2023-02-28T03:32:20;13.00;;;5.03;;
17059;SDS011;8646;49.716;9.266;2023-02-28T03:35:28;10.70;;;4.63;;
17059;SDS011;8646;49.716;9.266;2023-02-28T03:38:37;10.23;;;4.97;;
17059;SDS011;8646;49.716;9.266;2023-02-28T03:41:43;9.47;;;4.90;;
17059;SDS011;8646;49.716;9.266;2023-02-28T03:44:51;10.27;;;4.93;;
17059;SDS011;8646;49.716;9.266;2023-02-28T03:47:58;10.90;;;5.10;;
17059;SDS011;8646;49.716;9.266;2023-02-28T03:51:06;7.30;;;4.43;;
17059;SDS011;8646;49.716;9.266;2023-02-28T03:54:13;8.50;;;4.80;;
17059;SDS011;8646;49.716;9.266;2023-02-28T03:57:23;8.73;;;4.43;;
17059;SDS011;8646;49.716;9.266;2023-02-28T04:00:33;11.67;;;5.07;;
17059;SDS011;8646;49.716;9.266;2023-02-28T04:03:39;10.17;;;4.63;;
17059;SDS011;8646;49.716;9.266;2023-02-28T04:06:42;8.33;;;4.77;;
17059;SDS011;8646;49.716;9.266;2023-02-28T04:09:47;10.17;;;5.10;;
17059;SDS011;8646;49.716;9.266;2023-02-28T04:12:49;11.70;;;5.20;;
17059;SDS011;8646;49.716;9.266;2023-02-28T04:15:52;10.70;;;5.27;;
17059;SDS011;8646;49.716;9.266;2023-02-28T04:18:57;11.10;;;5.67;;
17059;SDS011;8646;49.716;9.266;2023-02-28T04:22:03;11.50;;;5.33;;
17059;SDS011;8646;49.716;9.266;2023-02-28T04:25:08;10.33;;;5.30;;
17059;SDS011;8646;49.716;9.266;2023-02-28T04:28:10;9.97;;;5.50;;
17059;SDS011;8646;49.716;9.266;2023-02-28T04:31:13;9.77;;;5.40;;
17059;SDS011;8646;49.716;9.266;2023-02-28T04:34:16;10.77;;;5.43;;
17059;SDS011;8646;49.716;9.266;2023-02-28T04:37:20;10.90;;;4.93;;
17059;SDS011;8646;49.716;9.266;2023-02-28T04:40:38;9.47;;;5.20;;
17059;SDS011;8646;49.716;9.266;2023-02-28T04:43:40;11.03;;;5.97;;
17059;SDS011;8646;49.716;9.266;2023-02-28T04:46:49;9.73;;;5.60;;
17059;SDS011;8646;49.716;9.266;2023-02-28T04:49:52;12.67;;;6.47;;
17059;SDS011;8646;49.716;9.266;2023-02-28T04:52:57;13.33;;;7.30;;
17059;SDS011;8646;49.716;9.266;2023-02-28T04:56:10;12.03;;;6.77;;
17059;SDS011;8646;49.716;9.266;2023-02-28T04:59:15;15.47;;;7.80;;
17059;SDS011;8646;49.716;9.266;2023-02-28T05:02:23;16.13;;;8.17;;
17059;SDS011;8646;49.716;9.266;2023-02-28T05:05:26;17.87;;;9.50;;
17059;SDS011;8646;49.716;9.266;2023-02-28T05:08:28;30.67;;;11.87;;
17059;SDS011;8646;49.716;9.266;2023-02-28T05:11:33;21.83;;;9.73;;
17059;SDS011;8646;49.716;9.266;2023-02-28T05:14:37;19.07;;;9.60;;
17059;SDS011;8646;49.716;9.266;2023-02-28T05:17:39;20.13;;;8.70;;
17059;SDS011;8646;49.716;9.266;2023-02-28T05:20:43;18.23;;;10.10;;
17059;SDS011;8646;49.716;9.266;2023-02-28T05:23:56;17.23;;;8.30;;
17059;SDS011;8646;49.716;9.266;2023-02-28T05:27:02;17.30;;;8.60;;
17059;SDS011;8646;49.716;9.266;2023-02-28T05:30:08;14.47;;;7.10;;
17059;SDS011;8646;49.716;9.266;2023-02-28T05:33:12;13.17;;;7.33;;
17059;SDS011;8646;49.716;9.266;2023-02-28T05:36:15;13.10;;;7.00;;
17059;SDS011;8646;49.716;9.266;2023-02-28T05:39:18;16.93;;;7.87;;
17059;SDS011;8646;49.716;9.266;2023-02-28T05:42:25;15.47;;;6.90;;
17059;SDS011;8646;49.716;9.266;2023-02-28T05:45:31;14.03;;;7.80;;
17059;SDS011;8646;49.716;9.266;2023-02-28T05:48:35;18.07;;;8.93;;
17059;SDS011;8646;49.716;9.266;2023-02-28T05:51:39;16.40;;;9.27;;
17059;SDS011;8646;49.716;9.266;2023-02-28T05:54:42;16.67;;;7.80;;
17059;SDS011;8646;49.716;9.266;2023-02-28T05:57:47;12.50;;;6.90;;
17059;SDS011;8646;49.716;9.266;2023-02-28T06:00:49;15.53;;;7.07;;
17059;SDS011;8646;49.716;9.266;2023-02-28T06:03:52;14.10;;;7.33;;
17059;SDS011;8646;49.716;9.266;2023-02-28T06:06:55;14.97;;;7.57;;
17059;SDS011;8646;49.716;9.266;2023-02-28T06:09:59;16.63;;;7.30;;
17059;SDS011;8646;49.716;9.266;2023-02-28T06:13:03;14.80;;;7.10;;
17059;SDS011;8646;49.716;9.266;2023-02-28T06:16:07;13.60;;;6.67;;
17059;SDS011;8646;49.716;9.266;2023-02-28T06:19:12;15.73;;;6.80;;
17059;SDS011;8646;49.716;9.266;2023-02-28T06:22:16;12.20;;;6.57;;
17059;SDS011;8646;49.716;9.266;2023-02-28T06:25:19;14.40;;;7.77;;
17059;SDS011;8646;49.716;9.266;2023-02-28T06:28:26;16.13;;;7.43;;
17059;SDS011;8646;49.716;9.266;2023-02-28T06:31:28;13.87;;;7.17;;
17059;SDS011;8646;49.716;9.266;2023-02-28T06:34:37;22.17;;;10.40;;
17059;SDS011;8646;49.716;9.266;2023-02-28T06:37:40;17.07;;;7.90;;
17059;SDS011;8646;49.716;9.266;2023-02-28T06:40:43;21.07;;;10.10;;
17059;SDS011;8646;49.716;9.266;2023-02-28T06:43:47;23.30;;;10.87;;
17059;SDS011;8646;49.716;9.266;2023-02-28T06:46:50;28.07;;;12.43;;
17059;SDS011;8646;49.716;9.266;2023-02-28T06:49:53;28.67;;;13.17;;
17059;SDS011;8646;49.716;9.266;2023-02-28T06:53:07;30.30;;;15.23;;
17059;SDS011;8646;49.716;9.266;2023-02-28T06:56:10;30.87;;;13.47;;
17059;SDS011;8646;49.716;9.266;2023-02-28T06:59:15;25.57;;;13.10;;
17059;SDS011;8646;49.716;9.266;2023-02-28T07:02:18;25.90;;;12.97;;
17059;SDS011;8646;49.716;9.266;2023-02-28T07:05:21;29.17;;;13.03;;
17059;SDS011;8646;49.716;9.266;2023-02-28T07:08:24;28.10;;;10.90;;
17059;SDS011;8646;49.716;9.266;2023-02-28T07:11:34;22.90;;;10.43;;
17059;SDS011;8646;49.716;9.266;2023-02-28T07:14:38;25.57;;;10.70;;
17059;SDS011;8646;49.716;9.266;2023-02-28T07:17:40;26.67;;;10.53;;
17059;SDS011;8646;49.716;9.266;2023-02-28T07:20:43;17.50;;;8.10;;
17059;SDS011;8646;49.716;9.266;2023-02-28T07:23:49;23.83;;;7.53;;
17059;SDS011;8646;49.716;9.266;2023-02-28T07:26:52;13.57;;;6.33;;
17059;SDS011;8646;49.716;9.266;2023-02-28T07:30:03;10.57;;;4.63;;
17059;SDS011;8646;49.716;9.266;2023-02-28T07:33:06;14.27;;;6.17;;
17059;SDS011;8646;49.716;9.266;2023-02-28T07:36:10;16.90;;;6.90;;
17059;SDS011;8646;49.716;9.266;2023-02-28T07:39:16;12.73;;;6.10;;
17059;SDS011;8646;49.716;9.266;2023-02-28T07:42:21;17.93;;;6.63;;
17059;SDS011;8646;49.716;9.266;2023-02-28T07:45:25;17.00;;;6.13;;
17059;SDS011;8646;49.716;9.266;2023-02-28T07:48:28;10.20;;;4.60;;
17059;SDS011;8646;49.716;9.266;2023-02-28T07:51:31;14.33;;;5.33;;
17059;SDS011;8646;49.716;9.266;2023-02-28T07:54:34;17.17;;;6.57;;
17059;SDS011;8646;49.716;9.266;2023-02-28T07:57:36;15.80;;;5.80;;
17059;SDS011;8646;49.716;9.266;2023-02-28T08:00:41;13.43;;;5.10;;
17059;SDS011;8646;49.716;9.266;2023-02-28T08:03:44;15.97;;;6.10;;
17059;SDS011;8646;49.716;9.266;2023-02-28T08:06:46;10.40;;;3.83;;
17059;SDS011;8646;49.716;9.266;2023-02-28T08:09:49;11.77;;;5.17;;
17059;SDS011;8646;49.716;9.266;2023-02-28T08:12:55;6.93;;;3.60;;
17059;SDS011;8646;49.716;9.266;2023-02-28T08:16:00;6.17;;;2.57;;
17059;SDS011;8646;49.716;9.266;2023-02-28T08:19:04;9.13;;;3.67;;
17059;SDS011;8646;49.716;9.266;2023-02-28T08:22:10;4.00;;;1.73;;
17059;SDS011;8646;49.716;9.266;2023-02-28T08:25:19;6.10;;;2.23;;
17059;SDS011;8646;49.716;9.266;2023-02-28T08:28:22;5.47;;;2.83;;
17059;SDS011;8646;49.716;9.266;2023-02-28T08:31:29;5.67;;;3.00;;
17059;SDS011;8646;49.716;9.266;2023-02-28T08:34:32;19.97;;;4.80;;
17059;SDS011;8646;49.716;9.266;2023-02-28T08:37:35;6.37;;;1.70;;
17059;SDS011;8646;49.716;9.266;2023-02-28T08:40:38;4.33;;;1.83;;
17059;SDS011;8646;49.716;9.266;2023-02-28T08:43:51;9.17;;;4.40;;
17059;SDS011;8646;49.716;9.266;2023-02-28T08:46:56;12.37;;;3.47;;
17059;SDS011;8646;49.716;9.266;2023-02-28T08:49:59;12.07;;;4.73;;
17059;SDS011;8646;49.716;9.266;2023-02-28T08:53:02;3.93;;;1.80;;
17059;SDS011;8646;49.716;9.266;2023-02-28T08:56:21;5.40;;;2.50;;
17059;SDS011;8646;49.716;9.266;2023-02-28T08:59:24;6.43;;;1.60;;
17059;SDS011;8646;49.716;9.266;2023-02-28T09:02:28;5.13;;;1.93;;
17059;SDS011;8646;49.716;9.266;2023-02-28T09:05:31;9.83;;;3.77;;
17059;SDS011;8646;49.716;9.266;2023-02-28T09:08:34;5.97;;;1.57;;
17059;SDS011;8646;49.716;9.266;2023-02-28T09:11:46;6.53;;;3.30;;
17059;SDS011;8646;49.716;9.266;2023-02-28T09:14:49;8.60;;;3.30;;
17059;SDS011;8646;49.716;9.266;2023-02-28T09:17:54;10.63;;;4.43;;
17059;SDS011;8646;49.716;9.266;2023-02-28T09:20:56;8.20;;;4.40;;
17059;SDS011;8646;49.716;9.266;2023-02-28T09:23:59;5.53;;;2.60;;
17059;SDS011;8646;49.716;9.266;2023-02-28T09:27:04;8.33;;;3.33;;
17059;SDS011;8646;49.716;9.266;2023-02-28T09:30:11;8.80;;;4.40;;
17059;SDS011;8646;49.716;9.266;2023-02-28T09:33:19;6.93;;;3.67;;
17059;SDS011;8646;49.716;9.266;2023-02-28T09:36:23;9.53;;;4.30;;
17059;SDS011;8646;49.716;9.266;2023-02-28T09:39:43;5.43;;;2.80;;
17059;SDS011;8646;49.716;9.266;2023-02-28T09:42:46;6.70;;;3.27;;
17059;SDS011;8646;49.716;9.266;2023-02-28T09:45:51;9.90;;;4.77;;
17059;SDS011;8646;49.716;9.266;2023-02-28T09:49:02;5.90;;;2.77;;
17059;SDS011;8646;49.716;9.266;2023-02-28T09:52:09;6.57;;;4.00;;
17059;SDS011;8646;49.716;9.266;2023-02-28T09:55:18;12.03;;;4.60;;
17059;SDS011;8646;49.716;9.266;2023-02-28T09:58:28;6.50;;;3.33;;
17059;SDS011;8646;49.716;9.266;2023-02-28T10:01:37;8.33;;;3.87;;
17059;SDS011;8646;49.716;9.266;2023-02-28T10:04:52;10.67;;;5.03;;
17059;SDS011;8646;49.716;9.266;2023-02-28T10:08:07;12.43;;;4.50;;
17059;SDS011;8646;49.716;9.266;2023-02-28T10:11:16;9.80;;;4.93;;
17059;SDS011;8646;49.716;9.266;2023-02-28T10:14:23;7.13;;;3.70;;
17059;SDS011;8646;49.716;9.266;2023-02-28T10:17:34;11.00;;;4.73;;
17059;SDS011;8646;49.716;9.266;2023-02-28T10:21:02;8.37;;;4.53;;
17059;SDS011;8646;49.716;9.266;2023-02-28T10:24:13;10.97;;;5.83;;
17059;SDS011;8646;49.716;9.266;2023-02-28T10:27:23;12.80;;;6.30;;
17059;SDS011;8646;49.716;9.266;2023-02-28T10:30:27;13.10;;;4.00;;
17059;SDS011;8646;49.716;9.266;2023-02-28T10:33:37;10.83;;;4.87;;
17059;SDS011;8646;49.716;9.266;2023-02-28T10:36:42;12.67;;;5.23;;
17059;SDS011;8646;49.716;9.266;2023-02-28T10:39:46;9.33;;;4.43;;
17059;SDS011;8646;49.716;9.266;2023-02-28T10:42:54;7.73;;;4.27;;
17059;SDS011;8646;49.716;9.266;2023-02-28T10:45:59;8.63;;;5.07;;
17059;SDS011;8646;49.716;9.266;2023-02-28T10:49:05;9.53;;;5.00;;
17059;SDS011;8646;49.716;9.266;2023-02-28T10:52:16;10.03;;;5.40;;
17059;SDS011;8646;49.716;9.266;2023-02-28T10:55:37;14.10;;;6.87;;
17059;SDS011;8646;49.716;9.266;2023-02-28T10:58:44;12.60;;;6.17;;
17059;SDS011;8646;49.716;9.266;2023-02-28T11:01:53;11.10;;;5.47;;
17059;SDS011;8646;49.716;9.266;2023-02-28T11:04:56;20.53;;;8.60;;
17059;SDS011;8646;49.716;9.266;2023-02-28T11:08:04;11.17;;;5.23;;
17059;SDS011;8646;49.716;9.266;2023-02-28T11:11:12;11.37;;;5.77;;
17059;SDS011;8646;49.716;9.266;2023-02-28T11:14:17;10.63;;;5.80;;
17059;SDS011;8646;49.716;9.266;2023-02-28T11:17:24;7.90;;;3.63;;
17059;SDS011;8646;49.716;9.266;2023-02-28T11:20:29;9.63;;;5.00;;
17059;SDS011;8646;49.716;9.266;2023-02-28T11:23:35;9.43;;;5.30;;
17059;SDS011;8646;49.716;9.266;2023-02-28T11:26:44;11.87;;;5.77;;
17059;SDS011;8646;49.716;9.266;2023-02-28T11:29:48;10.60;;;5.50;;
17059;SDS011;8646;49.716;9.266;2023-02-28T11:32:51;11.93;;;5.93;;
17059;SDS011;8646;49.716;9.266;2023-02-28T11:35:58;5.80;;;2.70;;
17059;SDS011;8646;49.716;9.266;2023-02-28T11:39:08;10.70;;;5.57;;
17059;SDS011;8646;49.716;9.266;2023-02-28T11:42:20;17.53;;;6.70;;
17059;SDS011;8646;49.716;9.266;2023-02-28T11:45:43;13.23;;;7.23;;
17059;SDS011;8646;49.716;9.266;2023-02-28T11:48:56;13.23;;;5.87;;
17059;SDS011;8646;49.716;9.266;2023-02-28T11:52:12;13.30;;;6.63;;
17059;SDS011;8646;49.716;9.266;2023-02-28T11:55:25;13.17;;;6.53;;
17059;SDS011;8646;49.716;9.266;2023-02-28T11:58:33;7.40;;;3.83;;
17059;SDS011;8646;49.716;9.266;2023-02-28T12:01:58;8.10;;;3.67;;
17059;SDS011;8646;49.716;9.266;2023-02-28T12:05:15;20.00;;;9.47;;
17059;SDS011;8646;49.716;9.266;2023-02-28T12:12:10;39.13;;;18.97;;
17059;SDS011;8646;49.716;9.266;2023-02-28T12:15:28;11.13;;;6.47;;
17059;SDS011;8646;49.716;9.266;2023-02-28T12:18:57;9.87;;;5.60;;
17059;SDS011;8646;49.716;9.266;2023-02-28T12:22:22;9.33;;;4.43;;
17059;SDS011;8646;49.716;9.266;2023-02-28T12:25:49;6.57;;;2.70;;
17059;SDS011;8646;49.716;9.266;2023-02-28T12:29:01;8.73;;;4.80;;
17059;SDS011;8646;49.716;9.266;2023-02-28T12:32:11;6.40;;;3.23;;
17059;SDS011;8646;49.716;9.266;2023-02-28T12:35:18;8.73;;;3.77;;
17059;SDS011;8646;49.716;9.266;2023-02-28T12:38:25;15.30;;;6.80;;
17059;SDS011;8646;49.716;9.266;2023-02-28T12:45:15;14.13;;;5.67;;
17059;SDS011;8646;49.716;9.266;2023-02-28T12:48:24;5.43;;;3.57;;
17059;SDS011;8646;49.716;9.266;2023-02-28T12:51:31;10.73;;;5.53;;
17059;SDS011;8646;49.716;9.266;2023-02-28T12:54:38;17.70;;;8.60;;
17059;SDS011;8646;49.716;9.266;2023-02-28T12:57:50;11.73;;;5.30;;
17059;SDS011;8646;49.716;9.266;2023-02-28T13:01:12;9.77;;;3.80;;
17059;SDS011;8646;49.716;9.266;2023-02-28T13:04:47;8.27;;;4.40;;
17059;SDS011;8646;49.716;9.266;2023-02-28T13:08:13;6.60;;;3.30;;
17059;SDS011;8646;49.716;9.266;2023-02-28T13:11:33;11.07;;;6.40;;
17059;SDS011;8646;49.716;9.266;2023-02-28T13:14:42;10.03;;;5.37;;
17059;SDS011;8646;49.716;9.266;2023-02-28T13:17:48;12.23;;;5.23;;
17059;SDS011;8646;49.716;9.266;2023-02-28T13:20:54;14.33;;;6.63;;
17059;SDS011;8646;49.716;9.266;2023-02-28T13:23:58;13.83;;;6.57;;
17059;SDS011;8646;49.716;9.266;2023-02-28T13:31:04;14.33;;;5.77;;
17059;SDS011;8646;49.716;9.266;2023-02-28T13:34:15;11.53;;;5.70;;
17059;SDS011;8646;49.716;9.266;2023-02-28T13:37:32;12.37;;;6.00;;
17059;SDS011;8646;49.716;9.266;2023-02-28T13:40:39;10.73;;;5.43;;
17059;SDS011;8646;49.716;9.266;2023-02-28T13:43:59;12.10;;;6.73;;
17059;SDS011;8646;49.716;9.266;2023-02-28T13:47:19;16.23;;;7.77;;
17059;SDS011;8646;49.716;9.266;2023-02-28T13:50:32;8.83;;;4.63;;
17059;SDS011;8646;49.716;9.266;2023-02-28T13:53:52;11.03;;;6.40;;
17059;SDS011;8646;49.716;9.266;2023-02-28T13:57:17;11.53;;;5.77;;
17059;SDS011;8646;49.716;9.266;2023-02-28T14:00:44;10.10;;;4.97;;
17059;SDS011;8646;49.716;9.266;2023-02-28T14:04:14;12.37;;;6.60;;
17059;SDS011;8646;49.716;9.266;2023-02-28T14:07:46;12.20;;;6.17;;
17059;SDS011;8646;49.716;9.266;2023-02-28T14:11:02;12.77;;;6.37;;
17059;SDS011;8646;49.716;9.266;2023-02-28T14:14:09;12.03;;;6.13;;
17059;SDS011;8646;49.716;9.266;2023-02-28T14:17:53;9.27;;;4.10;;
17059;SDS011;8646;49.716;9.266;2023-02-28T14:20:58;11.93;;;6.37;;
17059;SDS011;8646;49.716;9.266;2023-02-28T14:24:24;12.73;;;5.70;;
17059;SDS011;8646;49.716;9.266;2023-02-28T14:27:47;10.10;;;5.73;;
17059;SDS011;8646;49.716;9.266;2023-02-28T14:30:57;14.63;;;5.73;;
17059;SDS011;8646;49.716;9.266;2023-02-28T14:34:16;12.10;;;4.00;;
17059;SDS011;8646;49.716;9.266;2023-02-28T14:37:37;11.70;;;6.33;;
17059;SDS011;8646;49.716;9.266;2023-02-28T14:40:44;10.80;;;6.67;;
17059;SDS011;8646;49.716;9.266;2023-02-28T14:43:51;9.03;;;4.20;;
17059;SDS011;8646;49.716;9.266;2023-02-28T14:46:56;11.40;;;6.03;;
17059;SDS011;8646;49.716;9.266;2023-02-28T14:50:02;11.13;;;5.30;;
17059;SDS011;8646;49.716;9.266;2023-02-28T14:53:06;7.93;;;3.70;;
17059;SDS011;8646;49.716;9.266;2023-02-28T14:56:22;13.17;;;5.57;;
17059;SDS011;8646;49.716;9.266;2023-02-28T14:59:27;11.07;;;5.70;;
17059;SDS011;8646;49.716;9.266;2023-02-28T15:02:34;11.40;;;4.47;;
17059;SDS011;8646;49.716;9.266;2023-02-28T15:05:37;9.33;;;4.90;;
17059;SDS011;8646;49.716;9.266;2023-02-28T15:08:40;9.67;;;4.97;;
17059;SDS011;8646;49.716;9.266;2023-02-28T15:11:46;6.67;;;3.10;;
17059;SDS011;8646;49.716;9.266;2023-02-28T15:14:50;8.53;;;4.27;;
17059;SDS011;8646;49.716;9.266;2023-02-28T15:17:54;12.50;;;5.43;;
17059;SDS011;8646;49.716;9.266;2023-02-28T15:21:00;47.07;;;15.63;;
17059;SDS011;8646;49.716;9.266;2023-02-28T15:24:08;11.40;;;4.53;;
17059;SDS011;8646;49.716;9.266;2023-02-28T15:27:19;10.93;;;5.70;;
17059;SDS011;8646;49.716;9.266;2023-02-28T15:30:25;11.90;;;5.97;;
17059;SDS011;8646;49.716;9.266;2023-02-28T15:33:30;15.87;;;6.50;;
17059;SDS011;8646;49.716;9.266;2023-02-28T15:36:34;15.37;;;6.90;;
17059;SDS011;8646;49.716;9.266;2023-02-28T15:39:41;11.93;;;4.90;;
17059;SDS011;8646;49.716;9.266;2023-02-28T15:43:00;20.27;;;8.70;;
17059;SDS011;8646;49.716;9.266;2023-02-28T15:46:07;13.37;;;6.50;;
17059;SDS011;8646;49.716;9.266;2023-02-28T15:49:13;12.70;;;5.97;;
17059;SDS011;8646;49.716;9.266;2023-02-28T15:52:22;11.63;;;5.40;;
17059;SDS011;8646;49.716;9.266;2023-02-28T15:55:29;14.97;;;8.10;;
17059;SDS011;8646;49.716;9.266;2023-02-28T15:58:34;16.00;;;7.47;;
17059;SDS011;8646;49.716;9.266;2023-02-28T16:01:38;7.23;;;3.87;;
17059;SDS011;8646;49.716;9.266;2023-02-28T16:04:58;11.37;;;5.67;;
17059;SDS011;8646;49.716;9.266;2023-02-28T16:08:11;13.83;;;6.80;;
17059;SDS011;8646;49.716;9.266;2023-02-28T16:11:16;10.83;;;5.30;;
17059;SDS011;8646;49.716;9.266;2023-02-28T16:14:22;13.53;;;6.63;;
17059;SDS011;8646;49.716;9.266;2023-02-28T16:17:29;12.57;;;6.67;;
17059;SDS011;8646;49.716;9.266;2023-02-28T16:20:35;13.70;;;7.07;;
17059;SDS011;8646;49.716;9.266;2023-02-28T16:23:37;16.50;;;7.80;;
17059;SDS011;8646;49.716;9.266;2023-02-28T16:26:40;20.13;;;9.07;;
17059;SDS011;8646;49.716;9.266;2023-02-28T16:29:50;27.27;;;12.97;;
17059;SDS011;8646;49.716;9.266;2023-02-28T16:32:56;11.00;;;5.20;;
17059;SDS011;8646;49.716;9.266;2023-02-28T16:35:59;9.83;;;5.80;;
17059;SDS011;8646;49.716;9.266;2023-02-28T16:39:02;12.30;;;6.73;;
17059;SDS011;8646;49.716;9.266;2023-02-28T16:42:09;42.37;;;15.27;;
17059;SDS011;8646;49.716;9.266;2023-02-28T16:45:18;19.40;;;8.70;;
17059;SDS011;8646;49.716;9.266;2023-02-28T16:48:24;12.23;;;5.53;;
17059;SDS011;8646;49.716;9.266;2023-02-28T16:51:27;14.00;;;7.10;;
17059;SDS011;8646;49.716;9.266;2023-02-28T16:54:31;15.13;;;7.07;;
17059;SDS011;8646;49.716;9.266;2023-02-28T16:57:33;14.23;;;6.10;;
17059;SDS011;8646;49.716;9.266;2023-02-28T17:00:38;65.43;;;24.80;;
17059;SDS011;8646;49.716;9.266;2023-02-28T17:03:41;17.87;;;7.70;;
17059;SDS011;8646;49.716;9.266;2023-02-28T17:06:46;12.17;;;6.67;;
17059;SDS011;8646;49.716;9.266;2023-02-28T17:09:48;10.60;;;6.27;;
17059;SDS011;8646;49.716;9.266;2023-02-28T17:12:53;13.13;;;6.73;;
17059;SDS011;8646;49.716;9.266;2023-02-28T17:16:15;12.27;;;6.27;;
17059;SDS011;8646;49.716;9.266;2023-02-28T17:19:23;13.47;;;6.33;;
17059;SDS011;8646;49.716;9.266;2023-02-28T17:22:26;15.00;;;6.80;;
17059;SDS011;8646;49.716;9.266;2023-02-28T17:25:29;19.50;;;7.33;;
17059;SDS011;8646;49.716;9.266;2023-02-28T17:28:32;11.20;;;5.83;;
17059;SDS011;8646;49.716;9.266;2023-02-28T17:31:37;11.83;;;6.10;;
17059;SDS011;8646;49.716;9.266;2023-02-28T17:34:41;14.97;;;6.60;;
17059;SDS011;8646;49.716;9.266;2023-02-28T17:37:45;14.30;;;6.17;;
17059;SDS011;8646;49.716;9.266;2023-02-28T17:40:48;20.53;;;6.83;;
17059;SDS011;8646;49.716;9.266;2023-02-28T17:43:51;25.80;;;12.70;;
17059;SDS011;8646;49.716;9.266;2023-02-28T17:46:55;17.33;;;7.37;;
17059;SDS011;8646;49.716;9.266;2023-02-28T17:49:58;24.60;;;8.73;;
17059;SDS011;8646;49.716;9.266;2023-02-28T17:53:01;12.97;;;6.13;;
17059;SDS011;8646;49.716;9.266;2023-02-28T17:56:04;14.17;;;7.07;;
17059;SDS011;8646;49.716;9.266;2023-02-28T17:59:08;14.07;;;6.77;;
17059;SDS011;8646;49.716;9.266;2023-02-28T18:02:13;15.13;;;7.03;;
17059;SDS011;8646;49.716;9.266;2023-02-28T18:05:17;20.60;;;8.37;;
17059;SDS011;8646;49.716;9.266;2023-02-28T18:08:20;20.73;;;9.33;;
17059;SDS011;8646;49.716;9.266;2023-02-28T18:11:23;16.40;;;7.53;;
17059;SDS011;8646;49.716;9.266;2023-02-28T18:14:27;15.27;;;7.20;;
17059;SDS011;8646;49.716;9.266;2023-02-28T18:17:31;19.93;;;7.87;;
17059;SDS011;8646;49.716;9.266;2023-02-28T18:20:34;17.73;;;7.60;;
17059;SDS011;8646;49.716;9.266;2023-02-28T18:23:38;19.63;;;8.93;;
17059;SDS011;8646;49.716;9.266;2023-02-28T18:26:48;17.67;;;8.43;;
17059;SDS011;8646;49.716;9.266;2023-02-28T18:29:51;23.80;;;11.70;;
17059;SDS011;8646;49.716;9.266;2023-02-28T18:32:56;39.10;;;18.10;;
17059;SDS011;8646;49.716;9.266;2023-02-28T18:35:59;41.43;;;18.07;;
17059;SDS011;8646;49.716;9.266;2023-02-28T18:39:02;51.53;;;20.63;;
17059;SDS011;8646;49.716;9.266;2023-02-28T18:42:06;30.10;;;14.53;;
17059;SDS011;8646;49.716;9.266;2023-02-28T18:45:09;30.67;;;13.50;;
17059;SDS011;8646;49.716;9.266;2023-02-28T18:48:15;31.37;;;14.00;;
17059;SDS011;8646;49.716;9.266;2023-02-28T18:51:21;33.53;;;15.70;;
17059;SDS011;8646;49.716;9.266;2023-02-28T18:54:25;30.13;;;14.33;;
17059;SDS011;8646;49.716;9.266;2023-02-28T18:57:34;32.20;;;14.97;;
17059;SDS011;8646;49.716;9.266;2023-02-28T19:00:37;35.20;;;16.27;;
17059;SDS011;8646;49.716;9.266;2023-02-28T19:03:41;30.50;;;16.30;;
17059;SDS011;8646;49.716;9.266;2023-02-28T19:06:44;29.33;;;12.93;;
17059;SDS011;8646;49.716;9.266;2023-02-28T19:09:53;31.03;;;14.83;;
17059;SDS011;8646;49.716;9.266;2023-02-28T19:12:56;38.63;;;16.20;;